Flight Track Log - Related Links

Times and Time Zones

All times are in EDT time to prevent confusion due to time zone crossing. See the N431DB flight status page for this flight to view local times or setup timezone preferences in your user account.

Time Position Orientation Groundspeed Altitude Reporting Facility
EDT Latitude Longitude Course Direction KTS MPH feet Rate Location/Type
Thu 08:08:29 AM 45.1153 -95.1686 289° West 167 192 3,000  Level Minneapolis Center
Thu 08:09:31 AM 45.1256 -95.2108 289° West 118 136 4,000 976 Climbing Minneapolis Center
Thu 08:10:32 AM 45.1344 -95.2514 287° West 113 130 5,000 878 Climbing Minneapolis Center
Thu 08:11:34 AM 45.1453 -95.2931 290° West 113 130 5,800 750 Climbing Minneapolis Center
Thu 08:12:48 AM 45.1569 -95.3442 288° West 113 130 6,700 794 Climbing Minneapolis Center
Thu 08:13:50 AM 45.1700 -95.3939 290° West 113 130 7,600 823 Climbing Minneapolis Center
Thu 08:14:52 AM 45.1800 -95.4319 290° West 107 123 8,400 732 Climbing Minneapolis Center
Thu 08:15:53 AM 45.1881 -95.4664 288° West 97 112 9,100 683 Climbing Minneapolis Center
Thu 08:16:55 AM 45.1969 -95.4983 292° West 90 104 9,800 484 Climbing Minneapolis Center
Thu 08:17:57 AM 45.2058 -95.5306 291° West 88 101 10,100 145 Climbing Minneapolis Center
Thu 08:18:59 AM 45.2178 -95.5742 291° West 108 124 10,100  Level Minneapolis Center
Thu 08:20:01 AM 45.2336 -95.6389 289° West 138 159 10,100  Level Minneapolis Center
Thu 08:21:03 AM 45.2461 -95.6922 288° West 142 163 10,100  Level Minneapolis Center
Thu 08:22:05 AM 45.2608 -95.7469 291° West 145 167 10,100  Level Minneapolis Center
Thu 08:23:06 AM 45.2747 -95.8011 290° West 147 169 10,100  Level Minneapolis Center
Thu 08:24:08 AM 45.2878 -95.8536 289° West 145 167 10,100  Level Minneapolis Center
Thu 08:25:10 AM 45.3014 -95.9089 289° West 148 170 10,100  Level Minneapolis Center
Thu 08:26:25 AM 45.3208 -95.9844 290° West 145 167 10,100  Level Minneapolis Center
Thu 08:27:26 AM 45.3347 -96.0392 290° West 147 169 10,100  Level Minneapolis Center
Thu 08:28:28 AM 45.3492 -96.0953 290° West 149 171 10,100  Level Minneapolis Center
Thu 08:29:30 AM 45.3614 -96.1497 288° West 148 170 10,100 -48 Level Minneapolis Center
Thu 08:30:32 AM 45.3761 -96.2033 291° West 147 169 10,000  Descending Minneapolis Center
Thu 08:31:34 AM 45.3889 -96.2581 288° West 146 168 10,100 48 Climbing Minneapolis Center
Thu 08:32:36 AM 45.4058 -96.3214 291° West 146 168 10,100  Level Minneapolis Center
Thu 08:33:51 AM 45.4214 -96.3894 288° West 148 170 10,100  Level Minneapolis Center
Thu 08:34:53 AM 45.4344 -96.4453 288° West 151 174 10,100  Level Minneapolis Center
Thu 08:35:55 AM 45.4486 -96.5025 289° West 151 174 10,100 -48 Level Minneapolis Center
Thu 08:36:57 AM 45.4628 -96.5558 291° West 148 170 10,000 -49 Descending Minneapolis Center
Thu 08:37:58 AM 45.4778 -96.6236 288° West 150 173 10,000  Level Minneapolis Center
Thu 08:39:00 AM 45.4919 -96.6797 290° West 150 173 10,000  Level Minneapolis Center
Thu 08:40:02 AM 45.5061 -96.7372 289° West 151 174 10,000  Level Minneapolis Center
Thu 08:41:04 AM 45.5200 -96.7950 289° West 153 176 10,000  Level Minneapolis Center
Thu 08:42:06 AM 45.5347 -96.8517 290° West 153 176 10,000  Level Minneapolis Center
Thu 08:43:08 AM 45.5486 -96.9083 289° West 153 176 10,000  Level Minneapolis Center
Thu 08:44:10 AM 45.5661 -96.9767 290° West 153 176 10,000  Level Minneapolis Center
Thu 08:45:12 AM 45.5814 -97.0317 292° West 152 175 10,000  Level Minneapolis Center
Thu 08:46:14 AM 45.5944 -97.0922 287° West 153 176 10,000  Level Minneapolis Center
Thu 08:47:16 AM 45.6069 -97.1531 286° West 157 181 10,000  Level Minneapolis Center
Thu 08:48:18 AM 45.6206 -97.2139 288° West 158 182 10,000  Level Minneapolis Center
Thu 08:49:20 AM 45.6347 -97.2722 289° West 159 183 10,000  Level Minneapolis Center
Thu 08:50:22 AM 45.6508 -97.3417 288° West 156 180 10,000  Level Minneapolis Center
Thu 08:51:36 AM 45.6669 -97.4083 289° West 152 175 10,000  Level Minneapolis Center
Thu 08:52:38 AM 45.6817 -97.4603 292° West 147 169 10,000  Level Minneapolis Center
Thu 08:53:40 AM 45.6942 -97.5156 288° West 147 169 10,000  Level Minneapolis Center
Thu 08:54:42 AM 45.7083 -97.5736 289° West 150 173 10,000  Level Minneapolis Center
Thu 08:55:44 AM 45.7206 -97.6275 288° West 148 170 10,000  Level Minneapolis Center
Thu 08:56:46 AM 45.7367 -97.6936 289° West 147 169 10,000  Level Minneapolis Center
Thu 08:57:48 AM 45.7494 -97.7503 288° West 149 171 10,000  Level Minneapolis Center
Thu 08:58:49 AM 45.7625 -97.8075 288° West 150 173 10,000  Level Minneapolis Center
Thu 08:59:53 AM 45.7753 -97.8653 288° West 153 176 10,000  Level Minneapolis Center
Thu 09:00:54 AM 45.7900 -97.9206 291° West 150 173 10,000  Level Minneapolis Center
Thu 09:01:56 AM 45.8025 -97.9794 287° West 153 176 10,000  Level Minneapolis Center
Thu 09:02:58 AM 45.8156 -98.0381 288° West 152 175 10,000  Level Minneapolis Center
Thu 09:04:00 AM 45.8331 -98.1081 290° West 154 177 10,000  Level Minneapolis Center
Thu 09:05:02 AM 45.8489 -98.1692 290° West 156 180 10,000  Level Minneapolis Center
Thu 09:06:04 AM 45.8617 -98.2278 287° West 157 181 10,000 97 Level Minneapolis Center
Thu 09:07:06 AM 45.8744 -98.2847 288° West 156 180 10,200 98 Climbing Minneapolis Center
Thu 09:08:07 AM 45.8875 -98.3425 288° West 154 177 10,200  Level Minneapolis Center
Thu 09:09:09 AM 45.9006 -98.4008 288° West 153 176 10,200  Level Minneapolis Center
Thu 09:10:11 AM 45.9136 -98.4594 288° West 154 177 10,200  Level Minneapolis Center
Thu 09:11:13 AM 45.9319 -98.5289 291° West 154 177 10,200  Level Minneapolis Center
Thu 09:12:28 AM 45.9567 -98.5939 299° West 153 176 10,200  Level Minneapolis Center
Thu 09:13:29 AM 45.9750 -98.6528 294° West 156 180 10,200  Level Minneapolis Center
Thu 09:14:31 AM 45.9906 -98.7139 290° West 159 183 10,200 -48 Level Minneapolis Center
Thu 09:15:33 AM 46.0022 -98.7756 285° West 161 185 10,100  Descending Minneapolis Center
Thu 09:16:35 AM 46.0111 -98.8342 282° West 158 182 10,200  Climbing Minneapolis Center
Thu 09:17:37 AM 46.0258 -98.9042 287° West 155 178 10,100  Descending Minneapolis Center
Thu 09:18:39 AM 46.0397 -98.9631 289° West 154 177 10,200  Climbing Minneapolis Center
Thu 09:19:41 AM 46.0528 -99.0236 287° West 156 180 10,100 -48 Descending Minneapolis Center
Thu 09:20:43 AM 46.0664 -99.0825 288° West 156 180 10,100  Level Minneapolis Center
Thu 09:21:45 AM 46.0781 -99.1431 286° West 157 181 10,100 48 Level Minneapolis Center
Thu 09:22:47 AM 46.0931 -99.2039 290° West 159 183 10,200 -48 Climbing Minneapolis Center
Thu 09:23:49 AM 46.1086 -99.2797 287° West 161 185 10,000 -48 Descending Minneapolis Center
Thu 09:24:51 AM 46.1189 -99.3350 285° West 156 180 10,100  Climbing Minneapolis Center
Thu 09:25:53 AM 46.1317 -99.3933 288° West 154 177 10,000 -49 Descending Minneapolis Center
Thu 09:26:54 AM 46.1444 -99.4544 287° West 155 178 10,000 49 Level Minneapolis Center
Thu 09:27:56 AM 46.1567 -99.5111 287° West 154 177 10,100 48 Climbing Minneapolis Center
Thu 09:28:58 AM 46.1689 -99.5706 287° West 154 177 10,100 -48 Level Minneapolis Center
Thu 09:30:00 AM 46.1817 -99.6303 287° West 154 177 10,000  Descending Minneapolis Center
Thu 09:31:02 AM 46.1964 -99.7033 286° West 156 180 10,100  Climbing Minneapolis Center
Thu 09:33:06 AM 46.2206 -99.8211 287° West 154 177 10,000 -32 Descending Minneapolis Center
Thu 09:34:07 AM 46.2347 -99.8856 288° West 153 176 10,000  Level Minneapolis Center
Thu 09:35:09 AM 46.2458 -99.9422 286° West 156 180 10,000 48 Level Minneapolis Center
Thu 09:36:11 AM 46.2581 -100.0022 286° West 160 184 10,100 48 Climbing Minneapolis Center
Thu 09:37:13 AM 46.2736 -100.0756 287° West 160 184 10,100  Level Minneapolis Center
Thu 09:38:15 AM 46.2867 -100.1369 287° West 160 184 10,100  Level Minneapolis Center
Thu 09:39:17 AM 46.2986 -100.1989 286° West 160 184 10,100 -48 Level Minneapolis Center
Thu 09:40:19 AM 46.3128 -100.2658 287° West 161 185 10,000  Descending Minneapolis Center
Thu 09:41:33 AM 46.3242 -100.3256 285° West 164 189 10,100 44 Climbing Minneapolis Center
Thu 09:42:35 AM 46.3394 -100.4028 286° West 166 191 10,100 -48 Level Minneapolis Center
Thu 09:43:37 AM 46.3531 -100.4644 288° West 164 189 10,000  Descending Minneapolis Center
Thu 09:44:39 AM 46.3675 -100.5403 285° West 165 190 10,100 48 Climbing Minneapolis Center
Thu 09:45:41 AM 46.3806 -100.6028 287° West 164 189 10,100 -48 Level Minneapolis Center
Thu 09:46:43 AM 46.3939 -100.6658 287° West 165 190 10,000 -48 Descending Minneapolis Center
Thu 09:47:45 AM 46.4067 -100.7336 285° West 165 190 10,000 48 Level Minneapolis Center
Thu 09:48:47 AM 46.4183 -100.7933 286° West 164 189 10,100  Climbing Minneapolis Center
Thu 09:49:49 AM 46.4339 -100.8667 287° West 163 188 10,000 -48 Descending Minneapolis Center
Thu 09:50:51 AM 46.4458 -100.9322 285° West 164 189 10,000 48 Level Minneapolis Center
Thu 09:51:53 AM 46.4578 -100.9967 285° West 165 190 10,100 48 Climbing Minneapolis Center
Thu 09:52:55 AM 46.4719 -101.0608 284° West 166 191 10,100  Level Minneapolis Center
Thu 09:53:00 AM 46.4691 -101.0637 284° West  Level FlightAware Approximate
Thu 09:53:57 AM 46.4833 -101.1242 285° West 165 190 10,100  Level Minneapolis Center
Thu 09:54:59 AM 46.4953 -101.1869 285° West 164 189 10,000  Descending Minneapolis Center
Thu 09:56:01 AM 46.5081 -101.2500 286° West 162 186 10,100  Climbing Minneapolis Center
Thu 09:57:03 AM 46.5217 -101.3244 285° West 161 185 10,000 -48 Descending Minneapolis Center
Thu 09:58:05 AM 46.5344 -101.3883 286° West 163 188 10,000 48 Level Minneapolis Center
Thu 09:59:07 AM 46.5467 -101.4536 285° West 165 190 10,100 48 Climbing Minneapolis Center
Thu 10:00:09 AM 46.5594 -101.5161 287° West 164 189 10,100  Level Minneapolis Center
Thu 10:01:11 AM 46.5711 -101.5811 285° West 165 190 10,100 -48 Level Minneapolis Center
Thu 10:02:13 AM 46.5864 -101.6522 287° West 163 188 10,000 -145 Descending Minneapolis Center
Thu 10:03:15 AM 46.5967 -101.7167 283° West 162 186 9,800 -339 Descending Minneapolis Center
Thu 10:04:17 AM 46.6114 -101.7869 287° West 177 204 9,300 -484 Descending Minneapolis Center
Thu 10:05:19 AM 46.6247 -101.8606 285° West 185 213 8,800 -581 Descending Minneapolis Center
Thu 10:06:21 AM 46.6400 -101.9431 285° West 192 221 8,100 -629 Descending Minneapolis Center
Thu 10:07:23 AM 46.6542 -102.0208 285° West 194 223 7,500 -532 Descending Minneapolis Center
Thu 10:08:25 AM 46.6714 -102.0994 288° West 200 230 7,000 -532 Descending Minneapolis Center
Thu 10:09:27 AM 46.6867 -102.1753 286° West 199 229 6,400 -576 Descending Minneapolis Center
Thu 10:10:30 AM 46.7011 -102.2506 286° West 196 226 5,800 -528 Descending Minneapolis Center
Thu 10:11:32 AM 46.7150 -102.3258 285° West 194 223 5,300 -435 Descending Minneapolis Center
Thu 10:12:34 AM 46.7278 -102.3994 284° West 192 221 4,900 -194 Descending Minneapolis Center
Thu 10:13:36 AM 46.7389 -102.4697 283° West 186 214 4,900  Level Minneapolis Center
Thu 10:14:38 AM 46.7542 -102.5519 285° West 181 208 4,900  Level Minneapolis Center
Thu 10:15:40 AM 46.7681 -102.6236 286° West 176 203 4,900  Level Minneapolis Center

Login

Don't have an account? Register now (free) for customized features, flight alerts, and more!